»·PEaware :: COA386 MSLP-MMUN

COA386 :: MSLP-MMUN

FLIGHT INFORMATION

Flight Status: Arrived
Operator:
Continental Air Lines
More flights by this operator :: More flights under this callsign
Pilot: Robby H. (353)
Aircraft: BOEING 767-200
(B762)
More flights by this aircraft type
Origin: MSLP El Salvador Intl
El Salvador
Destination: MMUN Cancun Intl
Mexico
More flights between these airports :: More routes between these airports
Route: DIRECT
File this flight plan on PilotEdge
Remarks: / V /
Altitude:
(Current/Filed)
27,000ft
Speed:
(Current/Filed)
532kts
Departed: 01-Jan-12 02:06 PM
Arrived: 01-Jan-12 03:10 PM
Distance/Time
Traveled:
473nm/1:03
Distance/Time
To Go:
Arrived

Flight Plot

Page will automatically refresh every two minutes.


Map Options




Map Legend


Flown Route
Filed Route
Departure Airport
Arrival Airport
Navaid (VOR, NDB)
Fix

Horizontal Profiles

Position Reports

Time Latitude Longitude Heading Altitude Ground
Speed
01-Jan-12 14:02 13.444220 -89.051935 86 113ft 30kts
01-Jan-12 14:03 13.446405 -89.045261 72 113ft 27kts
01-Jan-12 14:05 13.437891 -89.064169 249 440ft 162kts
01-Jan-12 14:05 13.428086 -89.106729 289 2377ft 226kts
01-Jan-12 14:06 13.495842 -89.112505 14 4495ft 311kts
01-Jan-12 14:07 13.588492 -89.084305 19 6332ft 375kts
01-Jan-12 14:08 13.691808 -89.052647 16 8131ft 396kts
01-Jan-12 14:09 13.799003 -89.019887 16 9909ft 406kts
01-Jan-12 14:10 13.908416 -88.986500 18 11475ft 410kts
01-Jan-12 14:11 14.020258 -88.952268 18 12482ft 419kts
01-Jan-12 14:12 14.133507 -88.917488 16 13473ft 437kts
01-Jan-12 14:13 14.251538 -88.881240 15 14484ft 441kts
01-Jan-12 14:14 14.370305 -88.844765 15 15488ft 447kts
01-Jan-12 14:15 14.489744 -88.808051 15 16485ft 452kts
01-Jan-12 14:16 14.611479 -88.770574 14 17490ft 457kts
01-Jan-12 14:17 14.733391 -88.732977 14 18491ft 460kts
01-Jan-12 14:19 14.857718 -88.694619 14 19499ft 464kts
01-Jan-12 14:20 14.983310 -88.655864 14 20506ft 473kts
01-Jan-12 14:21 15.110665 -88.616493 14 21508ft 482kts
01-Jan-12 14:22 15.239970 -88.576495 15 22503ft 492kts
01-Jan-12 14:23 15.371223 -88.535790 15 23497ft 500kts
01-Jan-12 14:24 15.508077 -88.493284 15 24518ft 507kts
01-Jan-12 14:25 15.642126 -88.451583 15 25505ft 511kts
01-Jan-12 14:26 15.781042 -88.408373 15 26520ft 512kts
01-Jan-12 14:27 15.917151 -88.365910 15 27003ft 522kts
01-Jan-12 14:28 16.058422 -88.321841 15 27008ft 531kts
01-Jan-12 14:29 16.200341 -88.277480 15 27011ft 531kts
01-Jan-12 14:30 16.342104 -88.233076 15 27009ft 531kts
01-Jan-12 14:31 16.486344 -88.187781 15 27017ft 531kts
01-Jan-12 14:32 16.626839 -88.143550 15 27048ft 531kts
01-Jan-12 14:33 16.768563 -88.098849 15 27058ft 531kts
01-Jan-12 14:34 16.911870 -88.053647 14 27078ft 530kts
01-Jan-12 14:35 17.052398 -88.009262 14 27086ft 529kts
01-Jan-12 14:36 17.193152 -87.964761 14 27098ft 529kts
01-Jan-12 14:37 17.335058 -87.919852 14 27108ft 529kts
01-Jan-12 14:38 17.475279 -87.875318 14 27102ft 529kts
01-Jan-12 14:39 17.616880 -87.830259 14 27093ft 529kts
01-Jan-12 14:40 17.757703 -87.785402 14 27087ft 529kts
01-Jan-12 14:41 17.898596 -87.740429 14 27070ft 529kts
01-Jan-12 14:42 18.040155 -87.695191 14 27051ft 529kts
01-Jan-12 14:43 18.181826 -87.649859 14 27041ft 529kts
01-Jan-12 14:44 18.322318 -87.604817 14 27046ft 529kts
01-Jan-12 14:45 18.458997 -87.560885 14 27046ft 529kts
01-Jan-12 14:46 18.605336 -87.513715 14 27042ft 529kts
01-Jan-12 14:47 18.746710 -87.468030 14 27045ft 529kts
01-Jan-12 14:48 18.886792 -87.422686 14 27048ft 529kts
01-Jan-12 14:49 19.027190 -87.377235 14 27064ft 529kts
01-Jan-12 14:50 19.169336 -87.331108 14 27076ft 529kts
01-Jan-12 14:51 19.295150 -87.290206 14 26124ft 523kts
01-Jan-12 14:52 19.434126 -87.244874 14 23893ft 507kts
01-Jan-12 14:53 19.566420 -87.201736 15 21701ft 492kts
01-Jan-12 14:54 19.694875 -87.159821 15 19512ft 477kts
01-Jan-12 14:55 19.920155 -87.086104 17 15473ft 448kts
01-Jan-12 14:56 20.037442 -87.047563 14 13263ft 435kts
01-Jan-12 14:57 20.151546 -87.009857 14 11044ft 423kts
01-Jan-12 14:59 20.278874 -86.968038 18 8452ft 388kts
01-Jan-12 14:59 20.363002 -86.940275 18 6618ft 374kts
01-Jan-12 15:00 20.462337 -86.907247 14 4396ft 382kts
01-Jan-12 15:01 20.564145 -86.873401 14 3013ft 373kts
01-Jan-12 15:02 20.663463 -86.840360 14 3148ft 376kts
01-Jan-12 15:03 20.763564 -86.807112 15 3065ft 376kts
01-Jan-12 15:04 20.859885 -86.775063 13 2628ft 333kts
01-Jan-12 15:05 20.941900 -86.777378 327 2287ft 274kts
01-Jan-12 15:06 20.983971 -86.801953 321 1450ft 263kts
01-Jan-12 15:07 21.021721 -86.853977 303 154ft 176kts
01-Jan-12 15:08 21.037384 -86.878474 296 32ft 0kts
01-Jan-12 15:09 21.037384 -86.878475 296 32ft 0kts

Navigation Log

Ident Type
Flight plan parsing failed, navigation log unavailable